sensor_id;sensor_type;location;lat;lon;timestamp;pressure;altitude;pressure_sealevel;temperature;humidity
70200;BME280;57587;55.688;37.600;2023-02-16T00:02:43;100383.81;;;-0.10;53.06
70200;BME280;57587;55.688;37.600;2023-02-16T00:05:36;100388.16;;;-0.09;53.75
70200;BME280;57587;55.688;37.600;2023-02-16T00:08:04;100390.97;;;-0.12;53.79
70200;BME280;57587;55.688;37.600;2023-02-16T00:10:33;100387.59;;;-0.14;53.53
70200;BME280;57587;55.688;37.600;2023-02-16T00:13:01;100382.13;;;-0.11;54.05
70200;BME280;57587;55.688;37.600;2023-02-16T00:15:47;100387.38;;;-0.11;54.25
70200;BME280;57587;55.688;37.600;2023-02-16T00:18:19;100389.19;;;-0.11;53.52
70200;BME280;57587;55.688;37.600;2023-02-16T00:20:47;100386.81;;;-0.16;53.68
70200;BME280;57587;55.688;37.600;2023-02-16T00:23:15;100378.59;;;-0.24;53.78
70200;BME280;57587;55.688;37.600;2023-02-16T00:25:42;100379.81;;;-0.30;52.07
70200;BME280;57587;55.688;37.600;2023-02-16T00:28:18;100377.25;;;-0.31;50.86
70200;BME280;57587;55.688;37.600;2023-02-16T00:30:46;100380.56;;;-0.42;50.71
70200;BME280;57587;55.688;37.600;2023-02-16T00:33:19;100379.41;;;-0.38;50.98
70200;BME280;57587;55.688;37.600;2023-02-16T00:35:46;100380.00;;;-0.33;52.09
70200;BME280;57587;55.688;37.600;2023-02-16T00:38:15;100375.38;;;-0.29;52.56
70200;BME280;57587;55.688;37.600;2023-02-16T00:40:42;100372.75;;;-0.29;52.65
70200;BME280;57587;55.688;37.600;2023-02-16T00:43:23;100373.59;;;-0.29;51.90
70200;BME280;57587;55.688;37.600;2023-02-16T00:45:51;100373.69;;;-0.30;51.88
70200;BME280;57587;55.688;37.600;2023-02-16T00:48:20;100370.97;;;-0.29;52.07
70200;BME280;57587;55.688;37.600;2023-02-16T00:50:47;100373.13;;;-0.35;52.73
70200;BME280;57587;55.688;37.600;2023-02-16T00:53:16;100367.59;;;-0.31;52.88
70200;BME280;57587;55.688;37.600;2023-02-16T00:55:44;100372.00;;;-0.31;52.76
70200;BME280;57587;55.688;37.600;2023-02-16T00:58:25;100367.88;;;-0.35;53.00
70200;BME280;57587;55.688;37.600;2023-02-16T01:01:07;100372.56;;;-0.40;53.03
70200;BME280;57587;55.688;37.600;2023-02-16T01:03:35;100369.28;;;-0.44;53.47
70200;BME280;57587;55.688;37.600;2023-02-16T01:06:03;100364.66;;;-0.40;53.52
70200;BME280;57587;55.688;37.600;2023-02-16T01:08:49;100369.94;;;-0.40;53.73
70200;BME280;57587;55.688;37.600;2023-02-16T01:11:34;100366.91;;;-0.34;53.13
70200;BME280;57587;55.688;37.600;2023-02-16T01:14:02;100372.00;;;-0.31;53.30
70200;BME280;57587;55.688;37.600;2023-02-16T01:16:36;100366.91;;;-0.34;53.77
70200;BME280;57587;55.688;37.600;2023-02-16T01:19:04;100371.06;;;-0.30;53.43
70200;BME280;57587;55.688;37.600;2023-02-16T01:21:31;100367.09;;;-0.37;53.49
70200;BME280;57587;55.688;37.600;2023-02-16T01:24:00;100376.72;;;-0.36;53.31
70200;BME280;57587;55.688;37.600;2023-02-16T01:26:28;100367.78;;;-0.34;53.15
70200;BME280;57587;55.688;37.600;2023-02-16T01:28:56;100372.00;;;-0.31;53.06
70200;BME280;57587;55.688;37.600;2023-02-16T01:31:22;100372.00;;;-0.31;53.91
70200;BME280;57587;55.688;37.600;2023-02-16T01:33:50;100368.13;;;-0.26;53.78
70200;BME280;57587;55.688;37.600;2023-02-16T01:36:27;100383.66;;;-0.21;53.32
70200;BME280;57587;55.688;37.600;2023-02-16T01:38:55;100369.16;;;-0.28;53.08
70200;BME280;57587;55.688;37.600;2023-02-16T01:44:18;100384.09;;;-0.29;53.26
70200;BME280;57587;55.688;37.600;2023-02-16T01:46:51;100380.84;;;-0.32;53.52
70200;BME280;57587;55.688;37.600;2023-02-16T01:49:19;100389.66;;;-0.33;53.96
70200;BME280;57587;55.688;37.600;2023-02-16T01:57:04;100385.72;;;-0.26;53.12
70200;BME280;57587;55.688;37.600;2023-02-16T02:00:03;100375.56;;;-0.32;53.22
70200;BME280;57587;55.688;37.600;2023-02-16T02:03:00;100381.00;;;-0.35;53.39
70200;BME280;57587;55.688;37.600;2023-02-16T02:06:00;100386.09;;;-0.32;53.92
70200;BME280;57587;55.688;37.600;2023-02-16T02:09:02;100383.84;;;-0.24;53.27
70200;BME280;57587;55.688;37.600;2023-02-16T02:11:38;100392.47;;;-0.22;53.45
70200;BME280;57587;55.688;37.600;2023-02-16T02:14:12;100393.53;;;-0.25;53.24
70200;BME280;57587;55.688;37.600;2023-02-16T02:17:00;100385.72;;;-0.26;52.76
70200;BME280;57587;55.688;37.600;2023-02-16T02:19:53;100385.91;;;-0.29;52.76
70200;BME280;57587;55.688;37.600;2023-02-16T02:36:44;100388.34;;;-0.12;53.53
70200;BME280;57587;55.688;37.600;2023-02-16T02:45:22;100385.53;;;-0.23;53.94
70200;BME280;57587;55.688;37.600;2023-02-16T02:47:51;100389.28;;;-0.27;54.21
70200;BME280;57587;55.688;37.600;2023-02-16T02:50:49;100387.88;;;-0.33;54.73
70200;BME280;57587;55.688;37.600;2023-02-16T02:57:17;100395.13;;;-0.36;55.26
70200;BME280;57587;55.688;37.600;2023-02-16T03:03:06;100387.13;;;-0.35;55.39
70200;BME280;57587;55.688;37.600;2023-02-16T03:05:37;100386.00;;;-0.31;55.88
70200;BME280;57587;55.688;37.600;2023-02-16T03:08:08;100385.44;;;-0.36;56.11
70200;BME280;57587;55.688;37.600;2023-02-16T03:10:50;100382.50;;;-0.31;55.75
70200;BME280;57587;55.688;37.600;2023-02-16T03:13:42;100385.91;;;-0.29;55.86
70200;BME280;57587;55.688;37.600;2023-02-16T03:16:27;100372.94;;;-0.32;55.23
70200;BME280;57587;55.688;37.600;2023-02-16T03:18:57;100371.81;;;-0.42;55.36
70200;BME280;57587;55.688;37.600;2023-02-16T03:21:43;100375.56;;;-0.32;55.33
70200;BME280;57587;55.688;37.600;2023-02-16T03:24:31;100373.69;;;-0.30;55.23
70200;BME280;57587;55.688;37.600;2023-02-16T03:27:21;100368.06;;;-0.24;54.94
70200;BME280;57587;55.688;37.600;2023-02-16T03:30:10;100368.91;;;-0.24;54.93
70200;BME280;57587;55.688;37.600;2023-02-16T03:32:40;100376.78;;;-0.24;54.69
70200;BME280;57587;55.688;37.600;2023-02-16T03:35:08;100372.19;;;-0.34;54.66
70200;BME280;57587;55.688;37.600;2023-02-16T03:37:39;100371.53;;;-0.38;55.13
70200;BME280;57587;55.688;37.600;2023-02-16T03:40:09;100367.78;;;-0.34;54.56
70200;BME280;57587;55.688;37.600;2023-02-16T03:42:56;100368.34;;;-0.29;54.23
70200;BME280;57587;55.688;37.600;2023-02-16T03:45:24;100377.25;;;-0.31;54.06
70200;BME280;57587;55.688;37.600;2023-02-16T03:47:53;100384.41;;;-0.33;53.87
70200;BME280;57587;55.688;37.600;2023-02-16T03:50:20;100379.81;;;-0.30;54.01
70200;BME280;57587;55.688;37.600;2023-02-16T03:52:48;100368.16;;;-0.40;53.86
70200;BME280;57587;55.688;37.600;2023-02-16T03:55:15;100373.25;;;-0.37;53.98
70200;BME280;57587;55.688;37.600;2023-02-16T03:57:42;100372.19;;;-0.34;53.46
70200;BME280;57587;55.688;37.600;2023-02-16T04:00:10;100372.47;;;-0.39;53.79
70200;BME280;57587;55.688;37.600;2023-02-16T04:02:42;100366.09;;;-0.35;53.61
70200;BME280;57587;55.688;37.600;2023-02-16T04:05:09;100360.56;;;-0.30;53.57
70200;BME280;57587;55.688;37.600;2023-02-16T04:07:36;100362.16;;;-0.28;53.75
70200;BME280;57587;55.688;37.600;2023-02-16T04:10:03;100361.97;;;-0.25;53.80
70200;BME280;57587;55.688;37.600;2023-02-16T04:12:30;100359.97;;;-0.35;53.67
70200;BME280;57587;55.688;37.600;2023-02-16T04:15:13;100358.31;;;-0.36;53.86
70200;BME280;57587;55.688;37.600;2023-02-16T04:17:40;100362.63;;;-0.35;53.84
70200;BME280;57587;55.688;37.600;2023-02-16T04:20:10;100368.16;;;-0.40;53.55
70200;BME280;57587;55.688;37.600;2023-02-16T04:22:38;100363.63;;;-0.38;53.86
70200;BME280;57587;55.688;37.600;2023-02-16T04:25:06;100364.47;;;-0.37;53.93
70200;BME280;57587;55.688;37.600;2023-02-16T04:27:34;100365.06;;;-0.32;53.55
70200;BME280;57587;55.688;37.600;2023-02-16T04:30:03;100360.63;;;-0.32;53.39
70200;BME280;57587;55.688;37.600;2023-02-16T04:32:31;100367.69;;;-0.32;53.50
70200;BME280;57587;55.688;37.600;2023-02-16T04:34:58;100358.69;;;-0.42;54.04
70200;BME280;57587;55.688;37.600;2023-02-16T04:37:25;100366.47;;;-0.41;53.87
70200;BME280;57587;55.688;37.600;2023-02-16T04:39:52;100359.41;;;-0.40;54.12
70200;BME280;57587;55.688;37.600;2023-02-16T04:42:19;100349.38;;;-0.48;54.03
70200;BME280;57587;55.688;37.600;2023-02-16T04:44:46;100347.69;;;-0.49;53.50
70200;BME280;57587;55.688;37.600;2023-02-16T04:47:14;100349.56;;;-0.51;53.35
70200;BME280;57587;55.688;37.600;2023-02-16T04:49:40;100349.75;;;-0.54;53.64
70200;BME280;57587;55.688;37.600;2023-02-16T04:52:09;100350.78;;;-0.57;54.17
70200;BME280;57587;55.688;37.600;2023-02-16T04:54:36;100356.69;;;-0.53;53.41
70200;BME280;57587;55.688;37.600;2023-02-16T04:57:04;100351.72;;;-0.58;53.55
70200;BME280;57587;55.688;37.600;2023-02-16T04:59:31;100357.94;;;-0.59;53.58
70200;BME280;57587;55.688;37.600;2023-02-16T05:01:58;100358.50;;;-0.68;53.78
70200;BME280;57587;55.688;37.600;2023-02-16T05:04:25;100363.06;;;-0.72;53.54
70200;BME280;57587;55.688;37.600;2023-02-16T05:06:52;100364.41;;;-0.64;53.76
70200;BME280;57587;55.688;37.600;2023-02-16T05:09:20;100363.38;;;-0.62;53.88
70200;BME280;57587;55.688;37.600;2023-02-16T05:11:51;100353.13;;;-0.66;54.00
70200;BME280;57587;55.688;37.600;2023-02-16T05:14:36;100369.38;;;-0.60;53.56
70200;BME280;57587;55.688;37.600;2023-02-16T05:17:19;100367.13;;;-0.66;53.21
70200;BME280;57587;55.688;37.600;2023-02-16T05:19:49;100367.13;;;-0.66;53.78
70200;BME280;57587;55.688;37.600;2023-02-16T05:22:17;100365.31;;;-0.65;53.57
70200;BME280;57587;55.688;37.600;2023-02-16T05:24:44;100375.47;;;-0.59;53.51
70200;BME280;57587;55.688;37.600;2023-02-16T05:27:15;100368.63;;;-0.62;53.67
70200;BME280;57587;55.688;37.600;2023-02-16T05:29:42;100372.00;;;-0.60;53.90
70200;BME280;57587;55.688;37.600;2023-02-16T05:32:09;100377.91;;;-0.56;54.25
70200;BME280;57587;55.688;37.600;2023-02-16T05:34:37;100373.72;;;-0.59;53.56
70200;BME280;57587;55.688;37.600;2023-02-16T05:37:04;100370.22;;;-0.59;53.65
70200;BME280;57587;55.688;37.600;2023-02-16T05:39:31;100377.25;;;-0.60;53.91
70200;BME280;57587;55.688;37.600;2023-02-16T05:41:59;100378.47;;;-0.65;54.01
70200;BME280;57587;55.688;37.600;2023-02-16T05:44:26;100380.25;;;-0.66;53.85
70200;BME280;57587;55.688;37.600;2023-02-16T05:46:53;100369.19;;;-0.71;53.79
70200;BME280;57587;55.688;37.600;2023-02-16T05:49:20;100371.72;;;-0.70;53.53
70200;BME280;57587;55.688;37.600;2023-02-16T05:51:47;100366.28;;;-0.66;53.41
70200;BME280;57587;55.688;37.600;2023-02-16T05:54:15;100367.13;;;-0.66;53.43
70200;BME280;57587;55.688;37.600;2023-02-16T05:56:47;100373.41;;;-0.68;53.65
70200;BME280;57587;55.688;37.600;2023-02-16T05:59:15;100368.44;;;-0.59;53.89
70200;BME280;57587;55.688;37.600;2023-02-16T06:01:44;100373.13;;;-0.64;53.38
70200;BME280;57587;55.688;37.600;2023-02-16T06:04:17;100376.78;;;-0.66;53.42
70200;BME280;57587;55.688;37.600;2023-02-16T06:06:44;100382.16;;;-0.68;53.47
70200;BME280;57587;55.688;37.600;2023-02-16T06:09:11;100374.81;;;-0.63;53.63
70200;BME280;57587;55.688;37.600;2023-02-16T06:11:38;100376.34;;;-0.59;53.99
70200;BME280;57587;55.688;37.600;2023-02-16T06:14:09;100385.53;;;-0.52;54.31
70200;BME280;57587;55.688;37.600;2023-02-16T06:16:38;100359.91;;;-0.48;53.89
70200;BME280;57587;55.688;37.600;2023-02-16T06:19:15;100361.19;;;-0.41;53.43
70200;BME280;57587;55.688;37.600;2023-02-16T06:21:43;100364.78;;;-0.42;53.72
70200;BME280;57587;55.688;37.600;2023-02-16T06:24:12;100370.88;;;-0.41;53.39
70200;BME280;57587;55.688;37.600;2023-02-16T06:26:39;100356.78;;;-0.40;52.73
70200;BME280;57587;55.688;37.600;2023-02-16T06:29:07;100369.56;;;-0.34;52.47
70200;BME280;57587;55.688;37.600;2023-02-16T06:31:35;100362.03;;;-0.40;52.32
70200;BME280;57587;55.688;37.600;2023-02-16T06:34:03;100365.63;;;-0.41;52.65
70200;BME280;57587;55.688;37.600;2023-02-16T06:36:31;100367.09;;;-0.37;52.89
70200;BME280;57587;55.688;37.600;2023-02-16T06:38:58;100364.03;;;-0.30;53.08
70200;BME280;57587;55.688;37.600;2023-02-16T06:41:25;100360.91;;;-0.22;52.77
70200;BME280;57587;55.688;37.600;2023-02-16T06:44:05;100354.34;;;-0.15;52.01
70200;BME280;57587;55.688;37.600;2023-02-16T06:46:33;100349.81;;;-0.13;52.55
70200;BME280;57587;55.688;37.600;2023-02-16T06:49:00;100356.28;;;-0.04;51.89
70200;BME280;57587;55.688;37.600;2023-02-16T06:51:27;100353.56;;;-0.03;52.11
70200;BME280;57587;55.688;37.600;2023-02-16T06:53:55;100353.00;;;-0.08;51.59
70200;BME280;57587;55.688;37.600;2023-02-16T06:56:22;100353.25;;;0.02;52.02
70200;BME280;57587;55.688;37.600;2023-02-16T06:58:50;100356.44;;;0.07;51.61
70200;BME280;57587;55.688;37.600;2023-02-16T07:01:17;100361.78;;;0.20;51.43
70200;BME280;57587;55.688;37.600;2023-02-16T07:03:50;100359.97;;;0.20;51.52
70200;BME280;57587;55.688;37.600;2023-02-16T07:06:19;100359.03;;;0.21;51.63
70200;BME280;57587;55.688;37.600;2023-02-16T07:08:46;100363.16;;;0.26;50.90
70200;BME280;57587;55.688;37.600;2023-02-16T07:11:13;100348.56;;;0.34;51.06
70200;BME280;57587;55.688;37.600;2023-02-16T07:13:41;100354.56;;;0.36;51.29
70200;BME280;57587;55.688;37.600;2023-02-16T07:16:08;100351.53;;;0.42;50.85
70200;BME280;57587;55.688;37.600;2023-02-16T07:18:36;100359.56;;;0.41;50.74
70200;BME280;57587;55.688;37.600;2023-02-16T07:21:03;100357.84;;;0.40;51.22
70200;BME280;57587;55.688;37.600;2023-02-16T07:23:32;100353.97;;;0.45;50.88
70200;BME280;57587;55.688;37.600;2023-02-16T07:25:59;100356.56;;;0.60;51.07
70200;BME280;57587;55.688;37.600;2023-02-16T07:28:26;100349.94;;;0.67;50.60
70200;BME280;57587;55.688;37.600;2023-02-16T07:30:53;100348.69;;;0.73;50.19
70200;BME280;57587;55.688;37.600;2023-02-16T07:33:21;100351.41;;;0.71;50.39
70200;BME280;57587;55.688;37.600;2023-02-16T07:35:48;100351.19;;;0.74;50.11
70200;BME280;57587;55.688;37.600;2023-02-16T07:38:16;100348.28;;;0.79;50.03
70200;BME280;57587;55.688;37.600;2023-02-16T07:40:43;100348.16;;;0.80;50.10
70200;BME280;57587;55.688;37.600;2023-02-16T07:43:10;100340.38;;;0.79;49.77
70200;BME280;57587;55.688;37.600;2023-02-16T07:45:37;100343.06;;;0.64;49.97
70200;BME280;57587;55.688;37.600;2023-02-16T07:48:04;100350.34;;;0.61;50.35
70200;BME280;57587;55.688;37.600;2023-02-16T07:50:31;100346.50;;;0.52;50.23
70200;BME280;57587;55.688;37.600;2023-02-16T07:53:00;100340.97;;;0.57;50.43
70200;BME280;57587;55.688;37.600;2023-02-16T07:55:28;100346.31;;;0.55;51.21
70200;BME280;57587;55.688;37.600;2023-02-16T07:57:56;100346.75;;;0.62;50.25
70200;BME280;57587;55.688;37.600;2023-02-16T08:00:23;100340.84;;;0.58;50.06
70200;BME280;57587;55.688;37.600;2023-02-16T08:02:51;100344.25;;;0.73;49.42
70200;BME280;57587;55.688;37.600;2023-02-16T08:05:18;100342.03;;;0.67;49.98
70200;BME280;57587;55.688;37.600;2023-02-16T08:07:45;100346.13;;;0.71;49.88
70200;BME280;57587;55.688;37.600;2023-02-16T08:10:14;100328.44;;;0.73;49.17
70200;BME280;57587;55.688;37.600;2023-02-16T08:12:41;100341.84;;;0.83;49.66
70200;BME280;57587;55.688;37.600;2023-02-16T08:15:09;100336.69;;;0.81;50.17
70200;BME280;57587;55.688;37.600;2023-02-16T08:17:37;100335.31;;;0.88;49.80
70200;BME280;57587;55.688;37.600;2023-02-16T08:20:06;100341.97;;;0.94;49.90
70200;BME280;57587;55.688;37.600;2023-02-16T08:22:34;100336.72;;;0.94;49.40
70200;BME280;57587;55.688;37.600;2023-02-16T08:25:01;100342.63;;;0.98;49.47
70200;BME280;57587;55.688;37.600;2023-02-16T08:27:30;100342.41;;;1.01;49.28
70200;BME280;57587;55.688;37.600;2023-02-16T08:29:57;100344.09;;;1.02;49.24
70200;BME280;57587;55.688;37.600;2023-02-16T08:32:24;100339.44;;;1.05;48.98
70200;BME280;57587;55.688;37.600;2023-02-16T08:34:52;100343.66;;;1.08;49.39
70200;BME280;57587;55.688;37.600;2023-02-16T08:37:19;100344.50;;;1.08;49.64
70200;BME280;57587;55.688;37.600;2023-02-16T08:39:46;100335.47;;;1.12;49.20
70200;BME280;57587;55.688;37.600;2023-02-16T08:42:14;100333.13;;;1.21;48.97
70200;BME280;57587;55.688;37.600;2023-02-16T08:44:42;100334.84;;;1.22;49.08
70200;BME280;57587;55.688;37.600;2023-02-16T08:47:09;100329.66;;;1.20;48.70
70200;BME280;57587;55.688;37.600;2023-02-16T08:49:36;100333.88;;;1.10;48.31
70200;BME280;57587;55.688;37.600;2023-02-16T08:52:05;100331.88;;;1.01;48.72
70200;BME280;57587;55.688;37.600;2023-02-16T08:54:32;100323.53;;;0.94;50.61
70200;BME280;57587;55.688;37.600;2023-02-16T08:57:00;100334.09;;;1.07;49.32
70200;BME280;57587;55.688;37.600;2023-02-16T08:59:29;100330.69;;;1.05;49.24
70200;BME280;57587;55.688;37.600;2023-02-16T09:01:57;100331.66;;;1.04;49.14
70200;BME280;57587;55.688;37.600;2023-02-16T09:04:26;100326.72;;;0.99;49.38
70200;BME280;57587;55.688;37.600;2023-02-16T09:06:55;100331.88;;;1.01;48.74
70200;BME280;57587;55.688;37.600;2023-02-16T09:09:24;100333.25;;;1.19;48.72
70200;BME280;57587;55.688;37.600;2023-02-16T09:11:52;100330.19;;;1.25;48.44
70200;BME280;57587;55.688;37.600;2023-02-16T09:14:20;100322.81;;;1.43;48.04
70200;BME280;57587;55.688;37.600;2023-02-16T09:16:49;100322.34;;;1.62;47.64
70200;BME280;57587;55.688;37.600;2023-02-16T09:19:18;100316.22;;;1.74;46.89
70200;BME280;57587;55.688;37.600;2023-02-16T09:21:47;100317.88;;;1.75;46.14
70200;BME280;57587;55.688;37.600;2023-02-16T09:24:17;100318.53;;;2.03;45.53
70200;BME280;57587;55.688;37.600;2023-02-16T09:26:44;100313.91;;;2.30;44.89
70200;BME280;57587;55.688;37.600;2023-02-16T09:29:12;100320.19;;;3.22;42.60
70200;BME280;57587;55.688;37.600;2023-02-16T09:31:40;100320.91;;;3.24;43.05
70200;BME280;57587;55.688;37.600;2023-02-16T09:34:20;100313.09;;;4.55;39.94
70200;BME280;57587;55.688;37.600;2023-02-16T09:36:48;100310.25;;;4.14;39.74
70200;BME280;57587;55.688;37.600;2023-02-16T09:39:16;100311.41;;;3.67;40.80
70200;BME280;57587;55.688;37.600;2023-02-16T09:47:38;100313.34;;;2.73;42.02
70200;BME280;57587;55.688;37.600;2023-02-16T09:50:20;100311.63;;;2.61;42.91
70200;BME280;57587;55.688;37.600;2023-02-16T09:53:22;100317.75;;;2.38;43.04
70200;BME280;57587;55.688;37.600;2023-02-16T09:56:15;100311.41;;;2.16;43.28
70200;BME280;57587;55.688;37.600;2023-02-16T09:58:51;100304.56;;;1.90;43.14
70200;BME280;57587;55.688;37.600;2023-02-16T10:01:28;100304.88;;;1.85;43.90
70200;BME280;57587;55.688;37.600;2023-02-16T10:07:11;100310.72;;;1.77;45.02
70200;BME280;57587;55.688;37.600;2023-02-16T10:09:46;100297.34;;;1.92;43.99
70200;BME280;57587;55.688;37.600;2023-02-16T10:12:19;100306.00;;;1.94;43.88
70200;BME280;57587;55.688;37.600;2023-02-16T10:15:13;100305.50;;;1.89;43.30
70200;BME280;57587;55.688;37.600;2023-02-16T10:17:54;100293.19;;;1.76;43.86
70200;BME280;57587;55.688;37.600;2023-02-16T10:20:29;100300.59;;;1.71;44.58
70200;BME280;57587;55.688;37.600;2023-02-16T10:39:29;100286.03;;;0.90;44.84
70200;BME280;57587;55.688;37.600;2023-02-16T10:44:50;100296.34;;;0.81;45.40
70200;BME280;57587;55.688;37.600;2023-02-16T10:49:53;100301.28;;;0.85;45.62
70200;BME280;57587;55.688;37.600;2023-02-16T10:52:21;100289.28;;;0.81;45.70
70200;BME280;57587;55.688;37.600;2023-02-16T10:54:51;100294.22;;;0.73;45.61
70200;BME280;57587;55.688;37.600;2023-02-16T10:57:29;100292.63;;;0.71;45.86
70200;BME280;57587;55.688;37.600;2023-02-16T11:00:00;100289.25;;;0.68;46.22
70200;BME280;57587;55.688;37.600;2023-02-16T11:02:44;100292.53;;;0.72;45.50
70200;BME280;57587;55.688;37.600;2023-02-16T11:07:57;100288.44;;;0.81;45.86
70200;BME280;57587;55.688;37.600;2023-02-16T11:13:02;100290.94;;;0.82;46.03
70200;BME280;57587;55.688;37.600;2023-02-16T11:15:30;100285.47;;;0.85;45.54
70200;BME280;57587;55.688;37.600;2023-02-16T11:18:04;100287.69;;;0.91;46.01
70200;BME280;57587;55.688;37.600;2023-02-16T11:20:51;100278.81;;;0.92;44.44
70200;BME280;57587;55.688;37.600;2023-02-16T11:23:23;100277.47;;;1.00;43.77
70200;BME280;57587;55.688;37.600;2023-02-16T11:31:02;100276.44;;;1.15;42.68
70200;BME280;57587;55.688;37.600;2023-02-16T11:33:31;100271.22;;;1.26;42.22
70200;BME280;57587;55.688;37.600;2023-02-16T11:36:00;100273.44;;;1.32;41.18
70200;BME280;57587;55.688;37.600;2023-02-16T11:38:33;100270.38;;;1.38;42.10
70200;BME280;57587;55.688;37.600;2023-02-16T11:41:03;100273.63;;;1.55;40.97
70200;BME280;57587;55.688;37.600;2023-02-16T11:43:35;100267.84;;;1.87;41.09
70200;BME280;57587;55.688;37.600;2023-02-16T11:46:18;100271.47;;;1.97;40.03
70200;BME280;57587;55.688;37.600;2023-02-16T11:48:46;100273.72;;;1.90;40.17
70200;BME280;57587;55.688;37.600;2023-02-16T11:51:15;100270.91;;;1.80;40.32
70200;BME280;57587;55.688;37.600;2023-02-16T11:54:03;100269.88;;;1.70;40.25
70200;BME280;57587;55.688;37.600;2023-02-16T11:56:34;100270.34;;;1.51;41.09
70200;BME280;57587;55.688;37.600;2023-02-16T11:59:16;100269.22;;;1.43;41.69
70200;BME280;57587;55.688;37.600;2023-02-16T12:01:57;100262.91;;;1.32;41.82
70200;BME280;57587;55.688;37.600;2023-02-16T12:05:01;100259.09;;;1.24;42.62
70200;BME280;57587;55.688;37.600;2023-02-16T12:10:37;100262.81;;;0.96;43.16
70200;BME280;57587;55.688;37.600;2023-02-16T12:16:17;100260.09;;;0.84;43.61
70200;BME280;57587;55.688;37.600;2023-02-16T12:19:03;100258.09;;;0.88;44.28
70200;BME280;57587;55.688;37.600;2023-02-16T12:21:42;100267.38;;;0.94;44.37
70200;BME280;57587;55.688;37.600;2023-02-16T12:24:42;100259.75;;;0.89;44.87
70200;BME280;57587;55.688;37.600;2023-02-16T12:27:35;100268.72;;;0.74;44.85
70200;BME280;57587;55.688;37.600;2023-02-16T12:39:06;100269.84;;;0.57;44.95
70200;BME280;57587;55.688;37.600;2023-02-16T12:47:04;100273.63;;;0.53;44.28
70200;BME280;57587;55.688;37.600;2023-02-16T12:54:47;100281.63;;;0.51;42.66
70200;BME280;57587;55.688;37.600;2023-02-16T12:57:19;100285.53;;;0.45;42.73
70200;BME280;57587;55.688;37.600;2023-02-16T13:00:02;100282.25;;;0.42;43.60
70200;BME280;57587;55.688;37.600;2023-02-16T13:02:36;100285.09;;;0.39;43.52
70200;BME280;57587;55.688;37.600;2023-02-16T13:05:15;100280.78;;;0.38;43.96
70200;BME280;57587;55.688;37.600;2023-02-16T13:07:45;100274.97;;;0.33;43.99
70200;BME280;57587;55.688;37.600;2023-02-16T13:10:53;100281.91;;;0.34;43.83
70200;BME280;57587;55.688;37.600;2023-02-16T13:13:26;100277.19;;;0.39;43.57
70200;BME280;57587;55.688;37.600;2023-02-16T13:16:17;100275.94;;;0.44;42.97
70200;BME280;57587;55.688;37.600;2023-02-16T13:18:57;100282.88;;;0.45;43.33
70200;BME280;57587;55.688;37.600;2023-02-16T13:44:18;100274.75;;;0.36;43.67
70200;BME280;57587;55.688;37.600;2023-02-16T13:46:48;100271.69;;;0.29;43.46
70200;BME280;57587;55.688;37.600;2023-02-16T13:51:59;100275.38;;;0.27;43.15
70200;BME280;57587;55.688;37.600;2023-02-16T13:54:33;100274.41;;;0.28;44.31
70200;BME280;57587;55.688;37.600;2023-02-16T13:57:02;100271.13;;;0.24;43.68
70200;BME280;57587;55.688;37.600;2023-02-16T14:02:09;100273.84;;;0.10;43.72
70200;BME280;57587;55.688;37.600;2023-02-16T14:20:38;100277.47;;;-0.06;44.78
70200;BME280;57587;55.688;37.600;2023-02-16T14:22:52;100268.81;;;-0.08;44.25
70200;BME280;57587;55.688;37.600;2023-02-16T14:30:25;100283.13;;;-0.12;45.26
70200;BME280;57587;55.688;37.600;2023-02-16T14:33:19;100288.41;;;-0.26;44.66
70200;BME280;57587;55.688;37.600;2023-02-16T14:38:45;100284.28;;;-0.30;45.02
70200;BME280;57587;55.688;37.600;2023-02-16T14:43:51;100282.38;;;-0.28;45.37
70200;BME280;57587;55.688;37.600;2023-02-16T14:47:03;100284.13;;;-0.41;46.25
70200;BME280;57587;55.688;37.600;2023-02-16T14:49:54;100290.13;;;-0.54;46.11
70200;BME280;57587;55.688;37.600;2023-02-16T14:52:57;100293.34;;;-0.63;46.73
70200;BME280;57587;55.688;37.600;2023-02-16T15:00:45;100286.03;;;-0.58;48.28
70200;BME280;57587;55.688;37.600;2023-02-16T15:03:18;100279.16;;;-0.46;48.91
70200;BME280;57587;55.688;37.600;2023-02-16T15:05:57;100281.88;;;-0.48;48.95
70200;BME280;57587;55.688;37.600;2023-02-16T15:08:30;100288.63;;;-0.43;48.97
70200;BME280;57587;55.688;37.600;2023-02-16T15:11:17;100281.69;;;-0.44;49.63
70200;BME280;57587;55.688;37.600;2023-02-16T15:13:46;100290.50;;;-0.45;49.75
70200;BME280;57587;55.688;37.600;2023-02-16T15:16:20;100282.72;;;-0.47;50.24
70200;BME280;57587;55.688;37.600;2023-02-16T15:18:51;100288.81;;;-0.47;50.13
70200;BME280;57587;55.688;37.600;2023-02-16T15:21:22;100282.25;;;-0.54;49.53
70200;BME280;57587;55.688;37.600;2023-02-16T15:23:53;100291.84;;;-0.53;49.92
70200;BME280;57587;55.688;37.600;2023-02-16T15:26:32;100285.91;;;-0.56;49.48
70200;BME280;57587;55.688;37.600;2023-02-16T15:29:24;100286.41;;;-0.64;48.27
70200;BME280;57587;55.688;37.600;2023-02-16T15:31:49;100299.53;;;-0.64;48.67
70200;BME280;57587;55.688;37.600;2023-02-16T15:34:30;100292.97;;;-0.71;48.16
70200;BME280;57587;55.688;37.600;2023-02-16T15:37:00;100294.28;;;-0.78;48.70
70200;BME280;57587;55.688;37.600;2023-02-16T15:39:30;100295.50;;;-0.84;48.84
70200;BME280;57587;55.688;37.600;2023-02-16T15:42:23;100293.91;;;-1.01;48.38
70200;BME280;57587;55.688;37.600;2023-02-16T15:44:53;100297.53;;;-1.18;48.38
70200;BME280;57587;55.688;37.600;2023-02-16T15:47:23;100297.22;;;-1.27;48.69
70200;BME280;57587;55.688;37.600;2023-02-16T15:49:52;100302.47;;;-1.27;49.25
70200;BME280;57587;55.688;37.600;2023-02-16T15:52:31;100292.06;;;-1.29;49.07
70200;BME280;57587;55.688;37.600;2023-02-16T15:55:01;100297.56;;;-1.48;48.02
70200;BME280;57587;55.688;37.600;2023-02-16T15:57:36;100284.38;;;-1.62;48.53